Time;durP1;ratioP1;P1;durP2;ratioP2;P2;SDS_P1;SDS_P2;PMS_P1;PMS_P2;Temp;Humidity;BMP_temperature;BMP_pressure;BME280_temperature;BME280_humidity;BME280_pressure;Samples;Min_cycle;Max_cycle;Signal;HPM_P1;HPM_P2
2023/03/09 00:01:40;;;;;;;2.60;1.63;;;;;;;9.71;100.00;153854.25;5095847;28;20867;-78
2023/03/09 00:04:08;;;;;;;2.63;1.57;;;;;;;9.70;100.00;153851.63;5077000;28;20433;-78
2023/03/09 00:06:35;;;;;;;3.17;1.50;;;;;;;9.71;100.00;153854.25;5080576;28;20448;-78
2023/03/09 00:09:03;;;;;;;2.60;2.10;;;;;;;9.70;100.00;153851.63;5072387;28;20785;-78
2023/03/09 00:11:30;;;;;;;2.80;2.03;;;;;;;9.70;100.00;153851.63;5097662;28;20902;-78
2023/03/09 00:13:56;;;;;;;2.47;2.00;;;;;;;9.70;100.00;153851.63;5084184;28;20452;-78
2023/03/09 00:16:26;;;;;;;2.50;1.63;;;;;;;9.68;100.00;153846.47;5108271;28;20480;-78
2023/03/09 00:18:53;;;;;;;3.57;1.93;;;;;;;9.69;100.00;153849.03;5089635;28;20495;-78
2023/03/09 00:21:36;;;;;;;2.57;1.60;;;;;;;9.69;100.00;153849.03;5109441;28;20787;-78
2023/03/09 00:24:03;;;;;;;2.17;1.43;;;;;;;9.71;100.00;153852.94;5085979;28;20436;-78
2023/03/09 00:26:30;;;;;;;2.00;1.50;;;;;;;9.71;100.00;153852.94;5081882;28;20469;-78
2023/03/09 00:28:57;;;;;;;3.20;1.87;;;;;;;9.77;100.00;153869.75;5070543;28;20461;-78
2023/03/09 00:31:25;;;;;;;1.67;1.43;;;;;;;9.80;100.00;153877.50;5089819;28;20457;-78
2023/03/09 00:33:52;;;;;;;2.83;1.27;;;;;;;9.76;100.00;153867.19;5100794;28;20536;-78
2023/03/09 00:36:19;;;;;;;3.60;1.63;;;;;;;9.72;100.00;153856.81;5107623;28;20457;-78
2023/03/09 00:38:50;;;;;;;2.20;1.00;;;;;;;9.72;100.00;153856.81;5104221;28;20547;-78
2023/03/09 00:41:17;;;;;;;2.07;1.00;;;;;;;9.75;100.00;153864.56;5092994;28;20489;-78
2023/03/09 00:43:44;;;;;;;1.57;1.03;;;;;;;9.77;100.00;153869.75;5088841;28;20448;-77
2023/03/09 00:46:11;;;;;;;1.43;0.87;;;;;;;9.77;100.00;153869.75;5087624;28;20455;-78
2023/03/09 00:48:40;;;;;;;1.10;0.50;;;;;;;9.75;100.00;153864.56;5075708;28;20526;-78
2023/03/09 00:51:07;;;;;;;2.00;0.80;;;;;;;9.73;100.00;153858.09;5091012;28;20440;-77
2023/03/09 00:53:35;;;;;;;1.77;0.90;;;;;;;9.70;100.00;153851.63;5079379;28;20502;-78
2023/03/09 00:56:03;;;;;;;1.43;0.60;;;;;;;9.69;100.00;153849.03;5081149;28;20854;-78
2023/03/09 00:58:30;;;;;;;1.57;0.70;;;;;;;9.67;100.00;153843.88;5072539;28;20503;-78
2023/03/09 01:00:57;;;;;;;1.43;1.00;;;;;;;9.68;100.00;153845.16;5093046;28;20441;-78
2023/03/09 01:03:24;;;;;;;0.80;0.40;;;;;;;9.65;100.00;153838.72;5091128;28;20459;-78
2023/03/09 01:05:52;;;;;;;1.10;0.50;;;;;;;9.65;100.00;153837.41;5079286;28;20453;-79
2023/03/09 01:08:19;;;;;;;1.27;0.60;;;;;;;9.63;100.00;153832.25;5109484;28;20508;-78
2023/03/09 01:10:46;;;;;;;0.87;0.40;;;;;;;9.61;100.00;153828.34;5071988;28;20815;-78
2023/03/09 01:13:13;;;;;;;0.80;0.40;;;;;;;9.57;100.00;153818.00;5105760;28;20437;-78
2023/03/09 01:15:40;;;;;;;1.10;0.43;;;;;;;9.57;100.00;153818.00;5073377;28;20464;-78
2023/03/09 01:18:06;;;;;;;2.33;0.40;;;;;;;9.50;100.00;153799.91;5092682;28;20461;-78
2023/03/09 01:20:33;;;;;;;3.20;0.40;;;;;;;9.47;100.00;153790.84;5092721;28;20432;-78
2023/03/09 01:23:01;;;;;;;0.70;0.30;;;;;;;9.45;100.00;153786.94;5101855;28;20434;-78
2023/03/09 01:25:28;;;;;;;0.90;0.30;;;;;;;9.43;100.00;153780.47;5078186;28;20543;-78
2023/03/09 01:27:55;;;;;;;1.00;0.30;;;;;;;9.42;100.00;153779.22;5104564;28;20472;-78
2023/03/09 01:30:22;;;;;;;0.70;0.30;;;;;;;9.39;100.00;153771.44;5092740;28;20440;-78
2023/03/09 01:32:49;;;;;;;0.77;0.20;;;;;;;9.33;100.00;153755.91;5104682;28;20509;-78
2023/03/09 01:35:16;;;;;;;0.93;0.30;;;;;;;9.30;100.00;153748.13;5090811;28;20477;-78
2023/03/09 01:37:42;;;;;;;0.90;0.40;;;;;;;9.23;100.00;153730.03;5055701;28;21015;-78
2023/03/09 01:40:17;;;;;;;0.90;0.33;;;;;;;9.23;100.00;153728.75;5081563;28;20817;-78
2023/03/09 01:42:44;;;;;;;0.70;0.30;;;;;;;9.21;100.00;153724.88;5071817;28;20439;-78
2023/03/09 01:45:48;;;;;;;0.90;0.43;;;;;;;9.19;100.00;153720.97;5099096;28;20491;-78
2023/03/09 01:48:15;;;;;;;0.73;0.30;;;;;;;9.14;100.00;153706.75;5055918;28;20627;-78
2023/03/09 01:50:42;;;;;;;0.90;0.30;;;;;;;9.12;100.00;153701.59;5082372;28;20459;-78
2023/03/09 01:53:13;;;;;;;1.17;0.40;;;;;;;9.05;100.00;153683.50;5084671;28;20445;-78
2023/03/09 01:55:43;;;;;;;0.80;0.40;;;;;;;8.98;100.00;153665.34;5064625;28;20437;-78
2023/03/09 01:58:15;;;;;;;0.90;0.30;;;;;;;8.95;100.00;153657.59;5086149;28;20460;-78
2023/03/09 02:00:44;;;;;;;2.40;0.60;;;;;;;8.96;100.00;153660.19;5085859;28;20477;-77
2023/03/09 02:03:13;;;;;;;0.97;0.37;;;;;;;9.05;100.00;153684.75;5083990;28;20533;-78
2023/03/09 02:05:43;;;;;;;1.00;0.40;;;;;;;9.05;100.00;153683.50;5074488;28;20460;-78
2023/03/09 02:08:11;;;;;;;1.57;0.93;;;;;;;9.01;100.00;153674.44;5071812;28;20983;-78
2023/03/09 02:10:45;;;;;;;0.80;0.40;;;;;;;8.97;100.00;153662.81;5056554;28;20449;-78
2023/03/09 02:13:15;;;;;;;0.90;0.40;;;;;;;8.97;100.00;153662.81;5089020;28;20424;-78
2023/03/09 02:15:42;;;;;;;0.80;0.30;;;;;;;8.93;100.00;153652.44;5066672;28;20453;-78
2023/03/09 02:18:09;;;;;;;2.13;0.47;;;;;;;8.86;100.00;153634.34;5098297;28;20461;-78
2023/03/09 02:20:42;;;;;;;0.80;0.30;;;;;;;8.82;100.00;153623.97;5059152;28;20914;-78
2023/03/09 02:23:14;;;;;;;0.70;0.30;;;;;;;8.75;100.00;153605.91;5095308;28;20436;-78
2023/03/09 02:25:50;;;;;;;3.70;0.50;;;;;;;8.73;100.00;153602.03;5073418;28;20547;-78
2023/03/09 02:28:19;;;;;;;1.27;0.33;;;;;;;8.73;100.00;153600.72;5106147;28;20448;-79
2023/03/09 02:30:47;;;;;;;0.83;0.30;;;;;;;8.66;100.00;153582.66;5109144;28;20532;-77
2023/03/09 02:33:25;;;;;;;0.80;0.40;;;;;;;8.61;100.00;153569.69;5093176;28;20465;-77
2023/03/09 02:35:52;;;;;;;0.73;0.33;;;;;;;8.56;100.00;153559.38;5098660;28;20862;-77
2023/03/09 02:38:19;;;;;;;2.10;1.00;;;;;;;8.62;100.00;153573.59;5076660;28;20516;-77
2023/03/09 02:40:46;;;;;;;0.60;0.20;;;;;;;8.55;100.00;153556.75;5092758;28;20452;-77
2023/03/09 02:43:20;;;;;;;2.80;0.90;;;;;;;8.53;100.00;153551.59;5088382;28;20443;-77
2023/03/09 02:45:48;;;;;;;0.80;0.30;;;;;;;8.51;100.00;153546.44;5092517;28;20452;-77
2023/03/09 02:48:15;;;;;;;0.70;0.30;;;;;;;8.46;100.00;153532.22;5093914;28;20447;-77
2023/03/09 02:50:42;;;;;;;0.70;0.30;;;;;;;8.51;100.00;153545.13;5065339;28;20469;-77
2023/03/09 02:53:09;;;;;;;0.80;0.30;;;;;;;8.53;100.00;153550.28;5101400;28;20440;-77
2023/03/09 02:55:36;;;;;;;0.90;0.40;;;;;;;8.51;100.00;153545.13;5072116;28;20491;-76
2023/03/09 02:58:06;;;;;;;0.90;0.50;;;;;;;8.49;100.00;153541.28;5060694;28;20449;-76
2023/03/09 03:00:34;;;;;;;1.40;0.20;;;;;;;8.52;100.00;153549.00;5084343;28;20951;-77
2023/03/09 03:03:01;;;;;;;0.63;0.30;;;;;;;8.48;100.00;153538.69;5071152;28;20586;-77
2023/03/09 03:05:30;;;;;;;1.53;0.30;;;;;;;8.49;100.00;153539.97;5066267;28;20441;-77
2023/03/09 03:07:58;;;;;;;1.33;0.40;;;;;;;8.54;100.00;153554.19;5057569;28;20790;-77
2023/03/09 03:10:25;;;;;;;1.23;0.60;;;;;;;8.52;100.00;153549.00;5070975;28;20472;-77
2023/03/09 03:12:51;;;;;;;0.83;0.30;;;;;;;8.55;100.00;153556.75;5102659;28;20509;-77
2023/03/09 03:15:18;;;;;;;0.70;0.30;;;;;;;8.53;100.00;153551.59;5095540;28;21210;-77
2023/03/09 03:17:46;;;;;;;1.17;0.30;;;;;;;8.53;100.00;153551.59;5079370;28;20485;-77
2023/03/09 03:20:14;;;;;;;0.80;0.30;;;;;;;8.53;100.00;153551.59;5085664;28;20551;-77
2023/03/09 03:22:43;;;;;;;1.67;0.50;;;;;;;8.60;100.00;153567.13;5073110;28;20448;-77
2023/03/09 03:25:11;;;;;;;1.30;0.50;;;;;;;8.63;100.00;153574.88;5077704;28;20452;-77
2023/03/09 03:27:42;;;;;;;1.10;0.60;;;;;;;8.62;100.00;153573.59;5062662;28;20450;-77
2023/03/09 03:30:10;;;;;;;1.27;0.43;;;;;;;8.65;100.00;153581.34;5074714;28;20542;-77
2023/03/09 03:32:38;;;;;;;1.00;0.40;;;;;;;8.70;100.00;153592.97;5066461;28;20533;-77
2023/03/09 03:35:07;;;;;;;0.90;0.40;;;;;;;8.73;100.00;153600.72;5092223;28;20440;-77
2023/03/09 03:37:39;;;;;;;0.90;0.40;;;;;;;8.74;100.00;153603.28;5057493;28;20445;-77
2023/03/09 03:40:08;;;;;;;1.03;0.40;;;;;;;8.74;100.00;153604.59;5056449;28;20453;-77
2023/03/09 03:42:36;;;;;;;1.00;0.40;;;;;;;8.70;100.00;153592.97;5064133;28;20465;-77
2023/03/09 03:45:04;;;;;;;1.03;0.40;;;;;;;8.67;100.00;153586.50;5069327;28;20554;-77
2023/03/09 03:47:31;;;;;;;1.17;0.30;;;;;;;8.58;100.00;153564.53;5068231;28;20799;-77
2023/03/09 03:49:58;;;;;;;0.80;0.40;;;;;;;8.61;100.00;153570.97;5084883;28;20526;-77
2023/03/09 03:52:27;;;;;;;0.80;0.30;;;;;;;8.58;100.00;153564.53;5091934;28;20445;-77
2023/03/09 03:54:54;;;;;;;2.43;1.10;;;;;;;8.60;100.00;153567.13;5062984;28;20453;-77
2023/03/09 03:57:22;;;;;;;0.70;0.20;;;;;;;8.52;100.00;153549.00;5073628;28;20591;-77
2023/03/09 03:59:50;;;;;;;0.70;0.30;;;;;;;8.50;100.00;153542.53;5065267;28;20444;-77
2023/03/09 04:02:18;;;;;;;3.30;0.80;;;;;;;8.46;100.00;153533.53;5073062;28;20449;-77
2023/03/09 04:04:45;;;;;;;2.80;0.83;;;;;;;8.45;100.00;153529.63;5076471;28;20480;-78
2023/03/09 04:07:12;;;;;;;2.33;0.60;;;;;;;8.46;100.00;153533.53;5091387;28;20445;-78
2023/03/09 04:09:40;;;;;;;1.30;0.50;;;;;;;8.49;100.00;153541.28;5092850;28;20482;-78
2023/03/09 04:12:08;;;;;;;1.67;0.77;;;;;;;8.44;100.00;153527.06;5098024;28;20465;-77
2023/03/09 04:14:37;;;;;;;1.97;0.83;;;;;;;8.43;100.00;153524.47;5068039;28;20502;-78
2023/03/09 04:17:05;;;;;;;1.53;0.57;;;;;;;8.39;100.00;153515.38;5068553;28;21023;-78
2023/03/09 04:19:33;;;;;;;3.20;0.90;;;;;;;8.39;100.00;153515.38;5054729;28;20441;-77
2023/03/09 04:22:00;;;;;;;1.83;0.77;;;;;;;8.36;100.00;153506.38;5065346;28;20449;-78
2023/03/09 04:24:27;;;;;;;2.50;0.80;;;;;;;8.37;100.00;153510.22;5059909;28;20457;-78
2023/03/09 04:26:55;;;;;;;1.87;0.90;;;;;;;8.39;100.00;153515.38;5085177;28;21041;-77
2023/03/09 04:29:44;;;;;;;2.30;0.87;;;;;;;8.45;100.00;153530.91;5071803;28;20542;-78
2023/03/09 04:32:14;;;;;;;3.70;0.93;;;;;;;8.41;100.00;153520.59;5063975;28;20453;-77
2023/03/09 04:34:41;;;;;;;2.20;1.07;;;;;;;8.35;100.00;153505.06;5058628;28;20510;-78
2023/03/09 04:37:11;;;;;;;2.40;0.90;;;;;;;8.36;100.00;153507.69;5087453;28;20484;-77
2023/03/09 04:39:39;;;;;;;3.57;1.17;;;;;;;8.36;100.00;153507.69;5061528;28;20668;-78
2023/03/09 04:42:08;;;;;;;2.30;1.17;;;;;;;8.36;100.00;153507.69;5075770;28;20904;-78
2023/03/09 04:44:36;;;;;;;2.83;1.13;;;;;;;8.38;100.00;153512.84;5056078;28;20446;-78
2023/03/09 04:47:03;;;;;;;3.40;1.50;;;;;;;8.37;100.00;153510.22;5076731;28;20456;-78
2023/03/09 04:49:32;;;;;;;3.10;1.20;;;;;;;8.32;100.00;153496.00;5075394;28;20476;-77
2023/03/09 04:51:59;;;;;;;2.27;1.20;;;;;;;8.28;100.00;153485.69;5070134;28;20456;-78
2023/03/09 04:54:25;;;;;;;3.40;1.70;;;;;;;8.22;100.00;153471.44;5071564;28;20508;-77
2023/03/09 04:56:52;;;;;;;3.93;1.40;;;;;;;8.21;100.00;153468.81;5073337;28;20988;-77
2023/03/09 04:59:24;;;;;;;5.10;1.90;;;;;;;8.26;100.00;153481.75;5071415;28;20569;-77
2023/03/09 05:01:51;;;;;;;3.53;1.70;;;;;;;8.22;100.00;153471.44;5078205;28;20442;-78
2023/03/09 05:04:22;;;;;;;5.03;1.90;;;;;;;8.20;100.00;153466.28;5072370;28;20816;-78
2023/03/09 05:06:54;;;;;;;5.57;1.63;;;;;;;8.17;100.00;153457.19;5077878;28;20436;-78
2023/03/09 05:09:21;;;;;;;2.27;1.40;;;;;;;8.16;100.00;153454.59;5103537;28;20912;-78
2023/03/09 05:11:51;;;;;;;3.53;1.50;;;;;;;8.15;100.00;153452.03;5078522;28;20532;-77
2023/03/09 05:14:20;;;;;;;4.80;1.80;;;;;;;8.14;100.00;153450.75;5067801;28;20541;-78
2023/03/09 05:16:51;;;;;;;3.27;1.60;;;;;;;8.16;100.00;153455.91;5066527;28;20469;-78
2023/03/09 05:19:20;;;;;;;3.33;1.07;;;;;;;8.23;100.00;153474.03;5083580;28;20463;-77
2023/03/09 05:21:48;;;;;;;2.47;1.40;;;;;;;8.19;100.00;153462.38;5089737;28;20453;-78
2023/03/09 05:24:16;;;;;;;3.20;1.90;;;;;;;8.13;100.00;153448.13;5086504;28;20942;-77
2023/03/09 05:26:44;;;;;;;5.70;2.10;;;;;;;8.17;100.00;153458.50;5067303;28;20432;-78
2023/03/09 05:29:13;;;;;;;2.00;1.63;;;;;;;8.19;100.00;153463.66;5065062;28;20975;-77
2023/03/09 05:31:41;;;;;;;3.30;1.73;;;;;;;8.14;100.00;153449.44;5086069;28;20480;-77
2023/03/09 05:34:10;;;;;;;4.13;1.47;;;;;;;8.15;100.00;153453.34;5069779;28;20450;-77
2023/03/09 05:36:36;;;;;;;2.70;1.37;;;;;;;8.13;100.00;153448.13;5090587;28;20449;-77
2023/03/09 05:39:11;;;;;;;3.33;1.50;;;;;;;8.12;100.00;153445.59;5074938;28;20441;-77
2023/03/09 05:41:39;;;;;;;2.20;1.60;;;;;;;8.06;100.00;153430.06;5067234;28;20442;-77
2023/03/09 05:44:13;;;;;;;4.17;1.47;;;;;;;8.08;100.00;153435.22;5055443;28;20437;-77
2023/03/09 05:46:40;;;;;;;4.60;1.70;;;;;;;8.05;100.00;153427.47;5069182;28;20449;-78
2023/03/09 05:49:07;;;;;;;4.37;2.00;;;;;;;8.06;100.00;153430.06;5103434;28;20520;-78
2023/03/09 05:51:35;;;;;;;3.73;1.77;;;;;;;8.07;100.00;153432.66;5113474;28;20971;-77
2023/03/09 05:54:02;;;;;;;4.63;1.83;;;;;;;8.06;100.00;153428.75;5078195;28;20531;-78
2023/03/09 05:56:31;;;;;;;3.40;1.60;;;;;;;8.03;100.00;153422.31;5071019;28;20494;-78
2023/03/09 05:59:02;;;;;;;5.53;1.80;;;;;;;8.00;100.00;153414.53;5067559;28;20433;-78
2023/03/09 06:01:31;;;;;;;5.30;1.80;;;;;;;8.02;100.00;153419.75;5062560;28;20829;-78
2023/03/09 06:04:12;;;;;;;3.10;1.37;;;;;;;8.02;100.00;153419.75;5064831;28;20453;-77
2023/03/09 06:06:43;;;;;;;4.63;1.90;;;;;;;8.05;100.00;153427.47;5075448;28;20521;-77
2023/03/09 06:09:10;;;;;;;6.80;1.60;;;;;;;8.00;100.00;153414.53;5081225;28;20459;-78
2023/03/09 06:11:37;;;;;;;3.20;1.77;;;;;;;8.01;100.00;153417.16;5088091;28;20449;-77
2023/03/09 06:14:03;;;;;;;3.67;2.17;;;;;;;7.99;100.00;153412.00;5085177;28;20488;-76
2023/03/09 06:16:36;;;;;;;2.73;1.97;;;;;;;7.98;100.00;153409.41;5083476;28;20485;-76
2023/03/09 06:19:03;;;;;;;5.07;1.70;;;;;;;7.99;100.00;153412.00;5083161;28;20482;-76
2023/03/09 06:21:30;;;;;;;1.80;1.43;;;;;;;8.00;100.00;153414.53;5099063;28;20441;-76
2023/03/09 06:23:59;;;;;;;3.50;2.30;;;;;;;8.03;100.00;153421.00;5081894;28;20444;-76
2023/03/09 06:26:27;;;;;;;2.60;1.73;;;;;;;8.05;100.00;153427.47;5070478;28;20796;-76
2023/03/09 06:29:00;;;;;;;7.00;1.97;;;;;;;8.10;100.00;153440.38;5065892;28;20791;-76
2023/03/09 06:31:26;;;;;;;7.10;2.00;;;;;;;8.18;100.00;153459.81;5070749;28;20476;-76
2023/03/09 06:33:57;;;;;;;7.27;2.00;;;;;;;8.22;100.00;153471.44;5069178;28;20449;-76
2023/03/09 06:36:25;;;;;;;4.33;1.47;;;;;;;8.23;100.00;153472.72;5078233;28;20558;-76
2023/03/09 06:38:52;;;;;;;3.90;2.30;;;;;;;8.25;100.00;153479.19;5071900;28;20951;-76
2023/03/09 06:41:31;;;;;;;5.00;1.07;;;;;;;8.26;100.00;153480.50;5083618;28;20435;-76
2023/03/09 06:44:06;;;;;;;3.93;1.73;;;;;;;8.27;100.00;153484.41;5080930;28;20437;-76
2023/03/09 06:46:35;;;;;;;7.33;2.07;;;;;;;8.28;100.00;153487.00;5089364;28;20456;-76
2023/03/09 06:49:02;;;;;;;1.33;0.93;;;;;;;8.32;100.00;153497.31;5086700;28;20455;-76
2023/03/09 06:51:30;;;;;;;3.80;1.50;;;;;;;8.39;100.00;153515.38;5069812;28;20890;-76
2023/03/09 06:53:57;;;;;;;4.23;1.70;;;;;;;8.43;100.00;153525.75;5088393;28;20970;-76
2023/03/09 06:56:30;;;;;;;4.23;1.80;;;;;;;8.44;100.00;153528.34;5080645;28;20455;-76
2023/03/09 06:58:57;;;;;;;3.07;1.50;;;;;;;8.48;100.00;153538.69;5086259;28;20445;-76
2023/03/09 07:01:23;;;;;;;5.53;1.40;;;;;;;8.61;100.00;153569.69;5096568;28;20453;-76
2023/03/09 07:03:52;;;;;;;5.23;1.73;;;;;;;8.62;100.00;153573.59;5075008;28;20488;-76
2023/03/09 07:06:19;;;;;;;5.93;1.73;;;;;;;8.68;100.00;153587.81;5080886;28;20552;-76
2023/03/09 07:08:46;;;;;;;4.00;1.50;;;;;;;8.69;100.00;153590.38;5076366;28;20511;-76
2023/03/09 07:11:12;;;;;;;5.50;1.30;;;;;;;8.70;100.00;153592.97;5076891;28;20522;-76
2023/03/09 07:13:40;;;;;;;2.63;1.33;;;;;;;8.66;100.00;153582.66;5082254;28;20460;-76
2023/03/09 07:16:08;;;;;;;2.80;1.47;;;;;;;8.69;100.00;153591.66;5079953;28;20544;-76
2023/03/09 07:18:35;;;;;;;4.97;2.43;;;;;;;8.92;100.00;153649.88;5095846;28;20464;-77
2023/03/09 07:21:02;;;;;;;2.73;1.97;;;;;;;9.31;100.00;153749.44;5093648;28;20468;-77
2023/03/09 07:23:29;;;;;;;3.10;1.23;;;;;;;9.69;100.00;153847.72;5097901;28;20537;-77
2023/03/09 07:25:59;;;;;;;5.50;1.37;;;;;;;9.92;100.00;153906.00;5069529;28;20795;-77
2023/03/09 07:28:26;;;;;;;4.07;1.37;;;;;;;10.29;100.00;154001.81;5098643;28;20784;-76
2023/03/09 07:30:54;;;;;;;3.30;1.20;;;;;;;10.72;100.00;154113.13;5081901;28;20580;-76
2023/03/09 07:33:21;;;;;;;3.10;0.90;;;;;;;11.16;100.00;154224.53;5097781;27;20466;-76
2023/03/09 07:35:48;;;;;;;2.70;1.27;;;;;;;11.62;100.00;154345.00;5086531;28;20556;-77
2023/03/09 07:38:15;;;;;;;4.33;1.20;;;;;;;12.04;95.32;154452.69;5095572;28;20444;-76
2023/03/09 07:40:41;;;;;;;3.67;1.40;;;;;;;12.47;93.89;154561.59;5097450;28;20459;-77
2023/03/09 07:43:11;;;;;;;2.20;1.17;;;;;;;12.70;89.84;154622.53;5087774;28;20456;-76
2023/03/09 07:46:07;;;;;;;1.73;1.20;;;;;;;12.84;87.38;154657.50;5073444;28;20461;-77
2023/03/09 07:48:37;;;;;;;2.30;0.90;;;;;;;12.73;85.42;154629.00;5078475;28;20928;-77
2023/03/09 07:51:05;;;;;;;2.90;1.10;;;;;;;12.26;89.51;154507.13;5077723;28;20481;-77
2023/03/09 07:53:33;;;;;;;5.00;0.90;;;;;;;11.91;90.96;154418.97;5077889;28;20499;-77
2023/03/09 07:56:00;;;;;;;2.47;1.00;;;;;;;11.57;90.77;154330.75;5097509;28;20780;-79
2023/03/09 07:58:29;;;;;;;3.80;0.93;;;;;;;11.34;93.67;154271.16;5078245;28;20944;-77
2023/03/09 08:00:57;;;;;;;2.87;1.37;;;;;;;11.09;93.65;154206.41;5079462;28;20642;-76
2023/03/09 08:03:25;;;;;;;5.20;1.40;;;;;;;10.94;94.86;154170.13;5093458;28;20815;-76
2023/03/09 08:05:55;;;;;;;4.60;2.37;;;;;;;10.93;93.66;154166.28;5077361;28;20452;-77
2023/03/09 08:08:22;;;;;;;2.63;0.70;;;;;;;10.95;94.63;154172.75;5086035;28;20885;-76
2023/03/09 08:10:49;;;;;;;3.27;0.93;;;;;;;10.93;91.81;154167.53;5096013;28;20484;-76
2023/03/09 08:13:16;;;;;;;3.67;1.13;;;;;;;11.07;92.00;154201.25;5075799;28;20467;-76
2023/03/09 08:15:43;;;;;;;3.07;1.23;;;;;;;11.12;94.07;154215.44;5079921;28;20552;-76
2023/03/09 08:18:09;;;;;;;1.67;1.13;;;;;;;11.24;92.21;154246.56;5091308;28;20509;-76
2023/03/09 08:20:37;;;;;;;2.20;1.20;;;;;;;11.49;92.01;154310.06;5089556;28;20440;-77
2023/03/09 08:23:04;;;;;;;2.40;0.90;;;;;;;12.07;89.67;154459.16;5080398;28;20454;-76
2023/03/09 08:25:31;;;;;;;6.13;1.10;;;;;;;12.09;89.59;154465.63;5075224;28;20445;-76
2023/03/09 08:27:58;;;;;;;2.57;0.97;;;;;;;11.85;87.23;154403.41;5094949;28;20491;-77
2023/03/09 08:30:25;;;;;;;2.00;1.00;;;;;;;11.64;92.04;154348.94;5077120;28;20672;-76
2023/03/09 08:32:52;;;;;;;1.67;0.80;;;;;;;11.56;93.25;154328.19;5092296;28;20869;-76
2023/03/09 08:35:21;;;;;;;2.50;0.90;;;;;;;11.54;92.91;154324.28;5078096;28;20973;-76
2023/03/09 08:37:49;;;;;;;1.97;0.80;;;;;;;11.46;91.53;154302.28;5100032;28;20808;-76
2023/03/09 08:40:17;;;;;;;2.03;0.80;;;;;;;11.33;91.02;154268.59;5095330;28;20443;-76
2023/03/09 08:42:44;;;;;;;6.93;0.90;;;;;;;11.30;93.20;154260.81;5096038;28;21230;-77
2023/03/09 08:45:11;;;;;;;2.20;0.60;;;;;;;11.23;91.93;154243.97;5067662;28;20452;-77
2023/03/09 08:47:38;;;;;;;2.47;0.87;;;;;;;11.19;97.28;154232.31;5070359;28;20547;-76
2023/03/09 08:50:06;;;;;;;1.27;0.70;;;;;;;11.07;95.98;154201.25;5075177;28;20473;-77
2023/03/09 08:52:34;;;;;;;2.10;0.73;;;;;;;10.99;94.30;154183.09;5088010;28;20436;-77
2023/03/09 08:55:02;;;;;;;1.33;0.77;;;;;;;10.98;96.61;154180.53;5073482;28;20456;-76
2023/03/09 08:57:29;;;;;;;2.50;0.80;;;;;;;11.10;98.58;154208.97;5093537;28;21043;-77
2023/03/09 08:59:56;;;;;;;1.70;0.80;;;;;;;11.15;97.35;154223.22;5071767;28;20518;-77
2023/03/09 09:02:23;;;;;;;1.80;0.60;;;;;;;11.24;96.57;154246.56;5094281;28;21935;-76
2023/03/09 09:04:50;;;;;;;1.30;0.60;;;;;;;11.29;95.43;154258.22;5093424;28;20518;-77
2023/03/09 09:07:17;;;;;;;1.63;0.70;;;;;;;11.30;95.82;154260.81;5093275;28;20456;-77
2023/03/09 09:09:44;;;;;;;1.60;1.37;;;;;;;11.44;97.39;154298.38;5093667;28;20869;-77
2023/03/09 09:12:13;;;;;;;2.13;0.63;;;;;;;11.56;96.35;154328.19;5077466;28;20462;-77
2023/03/09 09:14:40;;;;;;;1.40;0.77;;;;;;;11.65;98.52;154350.22;5080275;28;20509;-78
2023/03/09 09:17:08;;;;;;;2.93;0.80;;;;;;;11.60;98.67;154338.53;5096259;28;20488;-77
2023/03/09 09:19:35;;;;;;;1.77;0.80;;;;;;;11.47;98.12;154304.84;5077091;28;20444;-78
2023/03/09 09:22:01;;;;;;;2.30;0.70;;;;;;;11.38;100.00;154281.56;5069314;28;20811;-77
2023/03/09 09:24:32;;;;;;;1.30;0.70;;;;;;;11.16;100.00;154224.53;5071861;28;20458;-77
2023/03/09 09:26:59;;;;;;;3.07;1.93;;;;;;;10.98;100.00;154179.22;5078606;28;20817;-77
2023/03/09 09:29:27;;;;;;;1.20;0.50;;;;;;;10.91;100.00;154161.06;5096306;28;20445;-77
2023/03/09 09:31:54;;;;;;;1.83;0.60;;;;;;;10.87;100.00;154150.72;5080265;28;20555;-77
2023/03/09 09:34:22;;;;;;;2.63;0.70;;;;;;;10.88;100.00;154154.56;5081107;28;20946;-78
2023/03/09 09:36:48;;;;;;;2.30;0.70;;;;;;;10.86;100.00;154149.41;5070059;28;20444;-77
2023/03/09 09:39:16;;;;;;;2.13;0.97;;;;;;;10.90;100.00;154159.78;5058810;28;20499;-77
2023/03/09 09:41:44;;;;;;;1.30;0.60;;;;;;;10.89;100.00;154155.88;5077854;28;20442;-78
2023/03/09 09:44:15;;;;;;;2.40;0.97;;;;;;;10.94;100.00;154170.13;5079484;28;20457;-78
2023/03/09 09:46:43;;;;;;;1.60;0.70;;;;;;;10.96;100.00;154174.06;5079769;28;20449;-78
2023/03/09 09:49:15;;;;;;;2.00;1.20;;;;;;;11.03;100.00;154192.16;5088262;28;20441;-77
2023/03/09 09:52:00;;;;;;;1.60;0.90;;;;;;;11.04;100.00;154193.47;5093072;28;20548;-78
2023/03/09 09:54:36;;;;;;;1.37;0.87;;;;;;;11.05;100.00;154196.03;5083530;28;20529;-78
2023/03/09 09:57:06;;;;;;;2.50;1.10;;;;;;;11.03;100.00;154192.16;5079507;28;20536;-77
2023/03/09 09:59:35;;;;;;;1.70;0.77;;;;;;;11.02;100.00;154190.84;5075904;28;20449;-77
2023/03/09 10:02:21;;;;;;;1.30;0.67;;;;;;;10.98;100.00;154180.53;5079740;28;20535;-78
2023/03/09 10:04:53;;;;;;;4.10;0.90;;;;;;;10.97;100.00;154177.91;5077455;28;20533;-78
2023/03/09 10:07:22;;;;;;;1.93;0.70;;;;;;;10.96;100.00;154174.06;5075981;28;20456;-78
2023/03/09 10:09:52;;;;;;;1.60;0.80;;;;;;;10.98;100.00;154179.22;5076797;28;20453;-78
2023/03/09 10:12:19;;;;;;;1.40;0.67;;;;;;;10.97;100.00;154177.91;5077963;28;20472;-78
2023/03/09 10:14:51;;;;;;;1.47;0.70;;;;;;;11.00;100.00;154184.38;5079969;28;20457;-77
2023/03/09 10:17:22;;;;;;;1.37;0.70;;;;;;;11.10;100.00;154210.28;5056223;28;20879;-78
2023/03/09 10:19:50;;;;;;;3.70;0.73;;;;;;;11.16;100.00;154224.53;5074487;28;20447;-78
2023/03/09 10:22:19;;;;;;;2.70;0.77;;;;;;;11.15;100.00;154221.94;5073186;28;20434;-77
2023/03/09 10:24:47;;;;;;;2.23;1.30;;;;;;;11.14;100.00;154219.38;5069111;28;20545;-78
2023/03/09 10:27:20;;;;;;;4.70;1.27;;;;;;;11.09;98.57;154206.41;5081223;28;20441;-78
2023/03/09 10:29:52;;;;;;;2.03;0.73;;;;;;;11.03;100.00;154192.16;5073905;28;20510;-77
2023/03/09 10:32:22;;;;;;;2.17;0.80;;;;;;;11.02;100.00;154190.84;5059573;28;20528;-78
2023/03/09 10:34:56;;;;;;;2.13;0.87;;;;;;;11.02;100.00;154190.84;5079113;28;20987;-78
2023/03/09 10:37:25;;;;;;;2.10;0.90;;;;;;;11.07;99.74;154202.50;5073604;28;20437;-78
2023/03/09 10:39:52;;;;;;;2.83;1.20;;;;;;;11.20;100.00;154234.94;5075156;28;20469;-78
2023/03/09 10:42:22;;;;;;;2.23;1.00;;;;;;;11.24;100.00;154245.25;5077477;28;20439;-78
2023/03/09 10:45:07;;;;;;;1.90;0.70;;;;;;;11.29;98.69;154259.53;5077830;28;20454;-78
2023/03/09 10:47:54;;;;;;;3.17;0.90;;;;;;;11.38;98.05;154282.84;5078546;28;20536;-78
2023/03/09 10:50:22;;;;;;;2.73;1.13;;;;;;;11.37;96.73;154280.25;5077662;28;20558;-78
2023/03/09 10:52:49;;;;;;;1.93;0.80;;;;;;;11.41;97.05;154289.34;5078401;28;20473;-78
2023/03/09 10:55:31;;;;;;;1.60;0.77;;;;;;;11.39;95.89;154284.13;5077384;28;20900;-78
2023/03/09 10:58:00;;;;;;;4.50;0.70;;;;;;;11.45;96.87;154300.97;5079862;28;21081;-78
2023/03/09 11:00:27;;;;;;;3.60;0.83;;;;;;;11.42;95.08;154293.19;5086921;28;20553;-77
2023/03/09 11:02:59;;;;;;;3.63;1.27;;;;;;;11.45;93.45;154299.69;5080773;28;20452;-78
2023/03/09 11:05:28;;;;;;;4.50;2.13;;;;;;;11.45;95.41;154299.69;5071517;28;20453;-78
2023/03/09 11:07:56;;;;;;;4.97;1.00;;;;;;;11.44;92.65;154297.06;5082860;28;20442;-78
2023/03/09 11:10:28;;;;;;;2.63;0.70;;;;;;;11.52;94.41;154317.81;5077782;28;20536;-78
2023/03/09 11:12:55;;;;;;;3.23;0.90;;;;;;;11.54;93.37;154324.28;5078086;28;20525;-78
2023/03/09 11:15:28;;;;;;;3.13;1.07;;;;;;;11.53;94.70;154320.41;5068690;28;20461;-78
2023/03/09 11:17:57;;;;;;;3.30;1.10;;;;;;;11.55;91.16;154326.88;5085194;28;20470;-78
2023/03/09 11:20:33;;;;;;;3.10;1.10;;;;;;;11.60;88.92;154338.53;5067320;28;20454;-78
2023/03/09 11:23:04;;;;;;;1.63;0.80;;;;;;;11.65;88.70;154350.22;5081028;28;20557;-78
2023/03/09 11:26:09;;;;;;;3.27;0.87;;;;;;;11.63;89.97;154346.31;5092566;28;21038;-77
2023/03/09 11:28:50;;;;;;;2.07;0.80;;;;;;;11.62;88.33;154343.75;5078208;28;20458;-77
2023/03/09 11:31:19;;;;;;;3.43;0.83;;;;;;;11.67;91.36;154356.72;5077747;28;20531;-77
2023/03/09 11:33:47;;;;;;;3.10;0.97;;;;;;;11.76;89.58;154380.06;5074467;28;20454;-77